Downpatrick, United Kingdom
Current Conditions -  °F | °C
As of 1:20 PM on Friday 31 Oct 2014 (Local Time) from EGAC Reporting Station
Few Clouds Few Clouds  
Wind Chill: 16°   Ceiling: Unl
Heat Index: 16°   Visibility: 6mi
Dew Point: 14°   Wind: 17mph
Humidity: 88%   Direction: 180°S
Pressure: 29.65"   Gusts: NA
Location:  54.33°N, 5.7°W
Report Text: EGAC 311320Z 18015KT 9999 FEW010 16/14 Q1004
Loading
Personal Weather Stations






























Interactive Weather Map
Tropical Storm Tracking
New forecast layout! Learn more

10-Day Weather Forecast

Advertisements
Track Severe Weather on mobile